Time;durP1;ratioP1;P1;durP2;ratioP2;P2;SDS_P1;SDS_P2;PMS_P1;PMS_P2;Temp;Humidity;BMP_temperature;BMP_pressure;BME280_temperature;BME280_humidity;BME280_pressure;Samples;Min_cycle;Max_cycle;Signal;HPM_P1;HPM_P2
2022/10/31 00:00:40;;;;;;;29.17;14.80;;;11.30;99.90;;;;;;5094243;28;20024;-75
2022/10/31 00:03:06;;;;;;;23.90;14.75;;;11.30;99.90;;;;;;5094132;28;20432;-76
2022/10/31 00:05:32;;;;;;;28.45;14.80;;;11.30;99.90;;;;;;5094063;28;20058;-76
2022/10/31 00:07:57;;;;;;;21.48;14.00;;;11.30;99.90;;;;;;5093803;28;20115;-76
2022/10/31 00:10:23;;;;;;;24.65;14.55;;;11.30;99.90;;;;;;5095094;28;20107;-76
2022/10/31 00:12:48;;;;;;;26.95;14.38;;;11.30;99.90;;;;;;5093925;28;20028;-76
2022/10/31 00:15:14;;;;;;;24.40;13.70;;;11.30;99.90;;;;;;5093861;28;20044;-76
2022/10/31 00:17:40;;;;;;;21.40;13.68;;;11.30;99.90;;;;;;5093921;28;20081;-76
2022/10/31 00:20:06;;;;;;;26.70;13.00;;;11.30;99.90;;;;;;5093916;28;20031;-76
2022/10/31 00:22:32;;;;;;;19.45;12.20;;;11.30;99.90;;;;;;5093848;28;20023;-76
2022/10/31 00:24:57;;;;;;;19.15;11.95;;;11.30;99.90;;;;;;5095105;28;20092;-76
2022/10/31 00:27:23;;;;;;;17.27;11.70;;;11.30;99.90;;;;;;5094965;28;20052;-76
2022/10/31 00:29:48;;;;;;;18.38;10.65;;;11.30;99.90;;;;;;5093863;28;20060;-76
2022/10/31 00:32:14;;;;;;;17.33;11.20;;;11.30;99.90;;;;;;5093598;28;20460;-76
2022/10/31 00:34:40;;;;;;;15.90;10.73;;;11.20;99.90;;;;;;5079657;28;20087;-76
2022/10/31 00:37:05;;;;;;;18.20;11.27;;;11.20;99.90;;;;;;5074793;28;20112;-76
2022/10/31 00:39:31;;;;;;;17.70;10.88;;;11.20;99.90;;;;;;5056637;28;20165;-76
2022/10/31 00:41:56;;;;;;;16.27;11.07;;;11.20;99.90;;;;;;5074441;28;20093;-76
2022/10/31 00:44:22;;;;;;;17.63;10.77;;;11.20;99.90;;;;;;5074437;28;20145;-76
2022/10/31 00:46:48;;;;;;;15.48;10.13;;;11.20;99.90;;;;;;5074028;28;20025;-76
2022/10/31 00:49:13;;;;;;;14.57;10.10;;;11.20;99.90;;;;;;5074279;28;20031;-76
2022/10/31 00:51:39;;;;;;;16.08;10.43;;;11.20;99.90;;;;;;5056412;28;20031;-76
2022/10/31 00:54:05;;;;;;;16.50;10.40;;;11.20;99.90;;;;;;5056241;28;20396;-76
2022/10/31 00:56:30;;;;;;;15.32;10.00;;;11.20;99.90;;;;;;5056429;28;20029;-76
2022/10/31 00:58:56;;;;;;;14.68;9.55;;;11.20;99.90;;;;;;5073895;28;20025;-76
2022/10/31 01:01:21;;;;;;;12.18;8.43;;;11.20;99.90;;;;;;5073789;28;20020;-76
2022/10/31 01:03:47;;;;;;;13.27;9.38;;;11.10;99.90;;;;;;5056132;28;20517;-76
2022/10/31 01:06:13;;;;;;;11.60;7.82;;;11.10;99.90;;;;;;5056080;28;20029;-76
2022/10/31 01:08:40;;;;;;;12.73;8.18;;;11.10;99.90;;;;;;5056103;28;20024;-76
2022/10/31 01:11:17;;;;;;;11.93;8.23;;;11.00;99.90;;;;;;5073964;28;20048;-76
2022/10/31 01:13:44;;;;;;;10.07;7.13;;;11.00;99.90;;;;;;5074165;28;20043;-76
2022/10/31 01:16:16;;;;;;;10.25;7.03;;;11.00;99.90;;;;;;5055932;28;20029;-76
2022/10/31 01:18:42;;;;;;;9.13;7.40;;;11.00;99.90;;;;;;5074044;28;20021;-77
2022/10/31 01:21:10;;;;;;;10.35;7.28;;;11.00;99.90;;;;;;5056051;28;20093;-76
2022/10/31 01:23:36;;;;;;;7.65;6.25;;;11.00;99.90;;;;;;5073553;28;20384;-76
2022/10/31 01:26:11;;;;;;;7.93;6.78;;;11.00;99.90;;;;;;5055921;28;20071;-76
2022/10/31 01:28:39;;;;;;;8.40;6.35;;;10.90;99.90;;;;;;5056362;28;20024;-76
2022/10/31 01:31:07;;;;;;;10.20;6.80;;;10.90;99.90;;;;;;5073760;28;20029;-76
2022/10/31 01:33:33;;;;;;;7.43;6.65;;;10.80;99.90;;;;;;5073372;28;20049;-76
2022/10/31 01:36:00;;;;;;;7.35;5.75;;;10.70;99.90;;;;;;5055731;28;20031;-76
2022/10/31 01:38:26;;;;;;;8.23;6.63;;;10.70;99.90;;;;;;5073364;28;20096;-76
2022/10/31 01:40:52;;;;;;;8.73;6.28;;;10.70;99.90;;;;;;5073670;28;20024;-76
2022/10/31 01:43:18;;;;;;;7.80;6.15;;;10.70;99.90;;;;;;5073776;28;20345;-76
2022/10/31 01:45:51;;;;;;;7.65;5.75;;;10.70;99.90;;;;;;5055909;28;20025;-76
2022/10/31 01:48:19;;;;;;;9.57;5.53;;;10.70;99.90;;;;;;5055801;28;20024;-76
2022/10/31 01:50:48;;;;;;;8.23;6.40;;;10.70;99.90;;;;;;5039276;28;20032;-76
2022/10/31 01:53:16;;;;;;;6.63;5.28;;;10.80;99.90;;;;;;5055524;28;20262;-76
2022/10/31 01:55:44;;;;;;;6.97;5.30;;;10.80;99.90;;;;;;5075077;28;20036;-76
2022/10/31 01:58:18;;;;;;;6.53;5.70;;;10.70;99.90;;;;;;5077254;28;20024;-76
2022/10/31 02:00:49;;;;;;;5.80;4.78;;;10.70;99.90;;;;;;5059776;28;20035;-76
2022/10/31 02:03:16;;;;;;;5.00;4.40;;;10.70;99.90;;;;;;5059618;28;20468;-76
2022/10/31 02:05:43;;;;;;;5.82;4.43;;;10.70;99.90;;;;;;5077446;28;20111;-76
2022/10/31 02:08:28;;;;;;;5.93;5.03;;;10.60;99.90;;;;;;5059384;28;20035;-76
2022/10/31 02:10:55;;;;;;;5.22;4.72;;;10.60;99.90;;;;;;5059485;28;20032;-76
2022/10/31 02:13:22;;;;;;;5.50;4.88;;;10.50;99.90;;;;;;5077225;28;20020;-76
2022/10/31 02:15:52;;;;;;;6.43;4.35;;;10.50;99.90;;;;;;5076979;28;20475;-76
2022/10/31 02:18:19;;;;;;;5.15;4.63;;;10.40;99.90;;;;;;5058987;28;20040;-76
2022/10/31 02:21:10;;;;;;;5.90;4.82;;;10.40;99.90;;;;;;5077403;28;20123;-76
2022/10/31 02:23:44;;;;;;;5.85;4.20;;;10.40;99.90;;;;;;5059468;28;20029;-76
2022/10/31 02:26:20;;;;;;;6.07;4.93;;;10.40;99.90;;;;;;5059273;28;20362;-76
2022/10/31 02:29:17;;;;;;;6.13;4.63;;;10.40;99.90;;;;;;5059100;28;20063;-76
2022/10/31 02:31:42;;;;;;;6.07;4.63;;;10.40;99.90;;;;;;5033672;28;20120;-76
2022/10/31 02:34:32;;;;;;;5.55;4.97;;;10.30;99.90;;;;;;5075520;28;20144;-76
2022/10/31 02:37:22;;;;;;;5.70;5.00;;;10.30;99.90;;;;;;5097562;28;20029;-76
2022/10/31 02:39:56;;;;;;;8.93;5.30;;;10.30;99.90;;;;;;5096077;28;20024;-76
2022/10/31 02:42:31;;;;;;;6.82;5.20;;;10.20;99.90;;;;;;5096718;28;20364;-76
2022/10/31 02:45:02;;;;;;;7.38;5.15;;;10.20;99.90;;;;;;5096633;28;20399;-76
2022/10/31 02:47:31;;;;;;;6.03;5.05;;;10.20;99.90;;;;;;5096660;28;20028;-76
2022/10/31 02:50:12;;;;;;;4.53;4.05;;;10.20;99.90;;;;;;5097284;28;20341;-76
2022/10/31 02:52:38;;;;;;;6.80;5.15;;;10.10;99.90;;;;;;5096706;28;20486;-76
2022/10/31 02:55:33;;;;;;;8.25;5.22;;;10.20;99.90;;;;;;5095508;28;20028;-76
2022/10/31 02:58:04;;;;;;;6.63;5.13;;;10.20;99.90;;;;;;5008252;28;20039;-76
2022/10/31 03:01:04;;;;;;;5.88;4.88;;;10.20;99.90;;;;;;5096043;28;20024;-76
2022/10/31 03:03:41;;;;;;;6.07;4.10;;;12.30;99.90;;;;;;5097484;28;20028;-76
2022/10/31 03:06:37;;;;;;;5.43;4.78;;;10.10;99.90;;;;;;5095784;28;20051;-76
2022/10/31 03:09:43;;;;;;;4.70;4.30;;;10.10;99.90;;;;;;5097442;28;20032;-76
2022/10/31 03:12:17;;;;;;;4.65;3.85;;;10.10;99.90;;;;;;5015020;28;20037;-76
2022/10/31 03:15:12;;;;;;;4.55;4.05;;;10.10;99.90;;;;;;5084507;28;20476;-75
2022/10/31 03:17:52;;;;;;;6.03;3.97;;;10.00;99.90;;;;;;5095557;28;20035;-76
2022/10/31 03:20:23;;;;;;;4.50;3.88;;;10.00;99.90;;;;;;5096949;28;20024;-76
2022/10/31 03:22:49;;;;;;;4.88;3.90;;;10.00;99.90;;;;;;5095169;28;20520;-76
2022/10/31 03:25:16;;;;;;;4.13;3.72;;;10.00;99.90;;;;;;5094992;28;20032;-76
2022/10/31 03:27:44;;;;;;;4.43;4.03;;;10.10;99.90;;;;;;5094962;28;20024;-76
2022/10/31 03:30:10;;;;;;;5.10;3.88;;;10.10;99.90;;;;;;5094928;28;20025;-76
2022/10/31 03:32:42;;;;;;;6.30;4.07;;;10.10;99.90;;;;;;5096505;28;20077;-76
2022/10/31 03:35:09;;;;;;;4.03;3.63;;;10.20;99.90;;;;;;5077959;28;20044;-76
2022/10/31 03:37:37;;;;;;;6.63;3.70;;;10.20;99.90;;;;;;5075442;28;20059;-76
2022/10/31 03:40:07;;;;;;;3.30;3.03;;;10.20;99.90;;;;;;5075623;28;20027;-76
2022/10/31 03:42:37;;;;;;;4.00;3.60;;;10.20;99.90;;;;;;5058360;28;20032;-76
2022/10/31 03:45:11;;;;;;;4.18;3.85;;;10.20;99.90;;;;;;5075366;28;20469;-76
2022/10/31 03:47:38;;;;;;;4.38;3.75;;;10.20;99.90;;;;;;5075635;28;20020;-76
2022/10/31 03:50:07;;;;;;;4.47;3.50;;;10.20;99.90;;;;;;5057603;28;20028;-76
2022/10/31 03:52:46;;;;;;;5.07;3.75;;;10.20;99.90;;;;;;5075247;28;20017;-76
2022/10/31 03:55:32;;;;;;;4.35;3.70;;;10.20;99.90;;;;;;5076027;28;20029;-77
2022/10/31 03:58:12;;;;;;;4.75;3.95;;;10.20;99.90;;;;;;5075197;28;20036;-76
2022/10/31 04:00:42;;;;;;;5.45;3.65;;;10.20;99.90;;;;;;5075503;28;20097;-76
2022/10/31 04:03:12;;;;;;;3.88;3.45;;;10.20;99.90;;;;;;5077719;28;20048;-76
2022/10/31 04:05:39;;;;;;;4.80;3.55;;;10.20;99.90;;;;;;5077556;28;20028;-77
2022/10/31 04:08:09;;;;;;;4.20;3.65;;;10.20;99.90;;;;;;5059032;28;20024;-76
2022/10/31 04:10:38;;;;;;;7.72;4.10;;;10.20;99.90;;;;;;5058970;28;20068;-76
2022/10/31 04:13:08;;;;;;;5.43;3.83;;;10.30;99.90;;;;;;5075759;28;20078;-76
2022/10/31 04:15:36;;;;;;;4.72;3.70;;;10.20;99.90;;;;;;5075035;28;20106;-76
2022/10/31 04:18:05;;;;;;;4.22;3.80;;;10.20;99.90;;;;;;5074474;28;20032;-76
2022/10/31 04:20:39;;;;;;;3.85;3.47;;;10.20;99.90;;;;;;5057200;28;20082;-76
2022/10/31 04:23:12;;;;;;;4.35;3.95;;;10.20;99.90;;;;;;5074721;28;20048;-76
2022/10/31 04:25:38;;;;;;;5.43;4.47;;;10.20;99.90;;;;;;5074563;28;20100;-76
2022/10/31 04:28:03;;;;;;;4.13;3.65;;;10.20;99.90;;;;;;5074910;28;20472;-76
2022/10/31 04:30:29;;;;;;;5.85;3.92;;;10.20;99.90;;;;;;5056708;28;20111;-76
2022/10/31 04:32:55;;;;;;;6.43;4.25;;;10.30;99.90;;;;;;5056852;28;20035;-76
2022/10/31 04:35:20;;;;;;;4.50;4.03;;;10.30;99.90;;;;;;5073994;28;20052;-76
2022/10/31 04:37:46;;;;;;;5.68;3.92;;;10.30;99.90;;;;;;5074470;28;20027;-76
2022/10/31 04:40:11;;;;;;;3.80;3.50;;;10.30;99.90;;;;;;5074221;28;20032;-76
2022/10/31 04:42:37;;;;;;;4.18;3.72;;;10.30;99.90;;;;;;5056706;28;20036;-76
2022/10/31 04:45:03;;;;;;;4.63;3.65;;;10.20;99.90;;;;;;5074371;28;20039;-76
2022/10/31 04:47:32;;;;;;;6.75;3.97;;;10.20;99.90;;;;;;5074117;28;20028;-76
2022/10/31 04:49:58;;;;;;;5.35;3.90;;;10.20;99.90;;;;;;5056356;28;20122;-76
2022/10/31 04:52:23;;;;;;;4.70;4.25;;;10.20;99.90;;;;;;5074267;28;20107;-76
2022/10/31 04:54:49;;;;;;;5.03;4.18;;;10.20;99.90;;;;;;5073974;28;20063;-76
2022/10/31 04:57:15;;;;;;;5.03;4.20;;;10.20;99.90;;;;;;5056374;28;20082;-76
2022/10/31 04:59:40;;;;;;;4.70;3.88;;;10.20;99.90;;;;;;5073926;28;20025;-76
2022/10/31 05:02:06;;;;;;;6.15;4.65;;;10.20;99.90;;;;;;5056128;28;20467;-76
2022/10/31 05:04:31;;;;;;;5.55;4.53;;;10.20;99.90;;;;;;5074167;28;20047;-76
2022/10/31 05:06:57;;;;;;;5.72;4.30;;;10.20;99.90;;;;;;5056561;28;20074;-76
2022/10/31 05:09:23;;;;;;;10.32;4.63;;;10.10;99.90;;;;;;5056145;28;20021;-76
2022/10/31 05:11:48;;;;;;;5.28;4.50;;;10.10;99.90;;;;;;5056153;28;20380;-76
2022/10/31 05:14:14;;;;;;;6.07;4.65;;;10.10;99.90;;;;;;5074005;28;20115;-76
2022/10/31 05:16:39;;;;;;;7.25;4.75;;;10.10;99.90;;;;;;5074042;28;20552;-76
2022/10/31 05:19:05;;;;;;;6.78;4.90;;;10.10;99.90;;;;;;5056563;28;20058;-76
2022/10/31 05:21:31;;;;;;;5.10;4.25;;;10.10;99.90;;;;;;5074343;28;20109;-76
2022/10/31 05:23:56;;;;;;;6.00;4.43;;;10.20;99.90;;;;;;5074095;28;20056;-75
2022/10/31 05:26:22;;;;;;;6.28;4.82;;;10.20;99.90;;;;;;5074304;28;20078;-76
2022/10/31 05:28:47;;;;;;;5.88;4.40;;;10.20;99.90;;;;;;5073572;28;20033;-76
2022/10/31 05:31:13;;;;;;;6.57;4.57;;;10.20;99.90;;;;;;5055716;28;20024;-76
2022/10/31 05:33:39;;;;;;;9.73;4.28;;;10.20;99.90;;;;;;5064215;28;20080;-76
2022/10/31 05:36:05;;;;;;;4.75;3.97;;;10.20;99.90;;;;;;5092832;28;20131;-76
2022/10/31 05:38:30;;;;;;;5.65;4.32;;;10.20;99.90;;;;;;5093920;28;20371;-76
2022/10/31 05:41:02;;;;;;;5.28;3.95;;;10.20;99.90;;;;;;5093559;28;20039;-76
2022/10/31 05:43:28;;;;;;;6.13;4.20;;;10.20;99.90;;;;;;5092809;28;20357;-76
2022/10/31 05:45:55;;;;;;;6.60;4.18;;;10.20;99.90;;;;;;5093855;28;20023;-76
2022/10/31 05:48:21;;;;;;;6.93;4.55;;;10.20;99.90;;;;;;5093896;28;20034;-76
2022/10/31 05:50:48;;;;;;;4.50;3.85;;;10.20;99.90;;;;;;5092845;28;20106;-76
2022/10/31 05:53:14;;;;;;;5.30;3.90;;;10.20;99.90;;;;;;5092279;28;20028;-76
2022/10/31 05:55:41;;;;;;;6.47;3.88;;;10.20;99.90;;;;;;5093404;28;20163;-76
2022/10/31 05:58:07;;;;;;;5.13;3.45;;;10.20;99.90;;;;;;5093721;28;20035;-76
2022/10/31 06:00:34;;;;;;;4.05;3.45;;;10.30;99.90;;;;;;5092624;28;20384;-76
2022/10/31 06:03:02;;;;;;;5.03;3.63;;;10.30;99.90;;;;;;5092375;28;20024;-76
2022/10/31 06:05:29;;;;;;;5.00;3.80;;;10.30;99.90;;;;;;5093572;28;20082;-77
2022/10/31 06:07:55;;;;;;;5.30;3.55;;;10.30;99.90;;;;;;5092173;28;20028;-77
2022/10/31 06:10:21;;;;;;;5.57;4.00;;;10.30;99.90;;;;;;5093926;28;20031;-79
2022/10/31 06:12:48;;;;;;;4.57;3.90;;;10.30;99.90;;;;;;5092491;28;20388;-78
2022/10/31 06:15:14;;;;;;;4.85;3.92;;;10.40;99.90;;;;;;5092455;28;20028;-81
2022/10/31 06:17:39;;;;;;;8.93;4.70;;;10.40;99.90;;;;;;5092568;28;20376;-80
2022/10/31 06:20:06;;;;;;;6.68;4.72;;;10.40;99.90;;;;;;5092344;28;20076;-83
2022/10/31 06:22:32;;;;;;;6.13;4.10;;;10.40;99.90;;;;;;5092478;28;20028;-79
2022/10/31 06:24:57;;;;;;;11.45;4.68;;;10.40;99.90;;;;;;5093991;28;20482;-80
2022/10/31 06:27:24;;;;;;;4.38;3.75;;;10.40;99.90;;;;;;5093234;28;20020;-79
2022/10/31 06:29:50;;;;;;;6.95;4.50;;;10.40;99.90;;;;;;5093121;28;20024;-79
2022/10/31 06:32:16;;;;;;;6.60;4.10;;;10.40;99.90;;;;;;5093407;28;20169;-78
2022/10/31 06:34:42;;;;;;;5.72;3.97;;;10.40;99.90;;;;;;5078733;28;20423;-79
2022/10/31 06:37:09;;;;;;;7.68;4.63;;;10.40;99.90;;;;;;5073415;28;20368;-74
2022/10/31 06:39:35;;;;;;;6.03;4.90;;;10.40;99.90;;;;;;5073753;28;20035;-78
2022/10/31 06:42:01;;;;;;;6.53;5.05;;;10.40;99.90;;;;;;5057114;28;20024;-77
2022/10/31 06:44:27;;;;;;;13.32;4.68;;;10.40;99.90;;;;;;5076735;28;20078;-78
2022/10/31 06:46:52;;;;;;;14.15;5.05;;;10.40;99.90;;;;;;5076743;28;20033;-77
2022/10/31 06:49:18;;;;;;;10.10;4.88;;;10.50;99.90;;;;;;5076660;28;20017;-77
2022/10/31 06:51:47;;;;;;;12.52;5.13;;;10.50;99.90;;;;;;5058821;28;20419;-78
2022/10/31 06:54:13;;;;;;;10.23;5.15;;;10.50;99.90;;;;;;5076737;28;20526;-69
2022/10/31 06:56:39;;;;;;;8.75;5.07;;;10.60;99.90;;;;;;5059324;28;20025;-80
2022/10/31 06:59:04;;;;;;;7.80;5.32;;;10.60;99.90;;;;;;5076610;28;20098;-81
2022/10/31 07:01:30;;;;;;;5.95;4.38;;;10.70;99.90;;;;;;5077603;28;20104;-81
2022/10/31 07:03:55;;;;;;;7.35;5.15;;;10.70;99.90;;;;;;5076994;28;20036;-80
2022/10/31 07:06:21;;;;;;;7.60;4.47;;;10.70;99.90;;;;;;5077360;28;20029;-81
2022/10/31 07:08:47;;;;;;;9.43;5.03;;;10.70;99.90;;;;;;5076234;28;20036;-75
2022/10/31 07:11:12;;;;;;;11.70;4.97;;;10.70;99.90;;;;;;5076192;28;20029;-79
2022/10/31 07:13:38;;;;;;;8.43;4.95;;;10.70;99.90;;;;;;5076125;28;20028;-78
2022/10/31 07:16:06;;;;;;;11.95;4.78;;;10.70;99.90;;;;;;5058722;28;20025;-78
2022/10/31 07:18:32;;;;;;;7.40;5.05;;;10.70;99.90;;;;;;5058470;28;20036;-79
2022/10/31 07:20:58;;;;;;;6.07;4.75;;;10.70;99.90;;;;;;5076232;28;20036;-79
2022/10/31 07:23:23;;;;;;;8.52;5.28;;;10.70;99.90;;;;;;5075951;28;20376;-79
2022/10/31 07:25:58;;;;;;;7.43;5.28;;;10.80;99.90;;;;;;5057993;28;20388;-79
2022/10/31 07:28:25;;;;;;;9.13;5.05;;;10.80;99.90;;;;;;5058239;28;20052;-79
2022/10/31 07:30:53;;;;;;;8.82;5.20;;;10.90;99.90;;;;;;5076042;28;20052;-80
2022/10/31 07:33:19;;;;;;;7.97;5.03;;;10.90;99.90;;;;;;5057631;28;20053;-78
2022/10/31 07:35:45;;;;;;;9.45;4.60;;;11.00;99.90;;;;;;5075493;28;20036;-60
2022/10/31 07:38:12;;;;;;;10.10;4.72;;;11.00;99.90;;;;;;5057639;28;20078;-60
2022/10/31 07:40:38;;;;;;;8.77;5.78;;;11.00;99.90;;;;;;5075478;28;20353;-61
2022/10/31 07:43:04;;;;;;;13.68;6.18;;;10.90;99.90;;;;;;5075774;28;20028;-79
2022/10/31 07:45:30;;;;;;;7.85;5.75;;;10.90;99.90;;;;;;5075701;28;20028;-80
2022/10/31 07:47:56;;;;;;;12.40;6.47;;;11.00;99.90;;;;;;5075543;28;20029;-79
2022/10/31 07:50:23;;;;;;;8.75;5.70;;;11.10;99.90;;;;;;5057854;28;20028;-84
2022/10/31 07:53:01;;;;;;;9.23;5.45;;;11.20;99.90;;;;;;5075127;28;20469;-79
2022/10/31 07:55:28;;;;;;;6.50;5.15;;;11.20;99.90;;;;;;5075327;28;20525;-80
2022/10/31 07:58:01;;;;;;;7.60;5.13;;;11.30;99.90;;;;;;5075488;28;20031;-80
2022/10/31 08:00:27;;;;;;;10.77;5.68;;;11.30;99.90;;;;;;5057629;28;20024;-80
2022/10/31 08:03:07;;;;;;;9.50;5.18;;;11.20;99.90;;;;;;5075374;28;20475;-80
2022/10/31 08:05:34;;;;;;;6.40;5.20;;;11.20;99.90;;;;;;5075420;28;20036;-81
2022/10/31 08:07:59;;;;;;;7.32;4.90;;;11.20;99.90;;;;;;5075208;28;20104;-77
2022/10/31 08:10:26;;;;;;;7.60;5.47;;;11.20;99.90;;;;;;5057341;28;20056;-77
2022/10/31 08:12:57;;;;;;;7.50;4.75;;;11.30;99.90;;;;;;5057087;28;20029;-82
2022/10/31 08:15:23;;;;;;;11.52;5.47;;;11.30;99.90;;;;;;5057690;28;20123;-81
2022/10/31 08:17:48;;;;;;;8.77;5.05;;;11.30;99.90;;;;;;5075098;28;20056;-82
2022/10/31 08:20:14;;;;;;;8.55;5.28;;;11.30;99.90;;;;;;5074619;28;20035;-82
2022/10/31 08:22:40;;;;;;;9.35;5.25;;;11.30;99.90;;;;;;5057049;28;20029;-77
2022/10/31 08:25:05;;;;;;;7.05;5.18;;;11.30;99.90;;;;;;5074590;28;20032;-79
2022/10/31 08:27:31;;;;;;;8.85;5.75;;;11.30;99.90;;;;;;5075298;28;20522;-80
2022/10/31 08:29:58;;;;;;;9.23;5.65;;;11.30;99.90;;;;;;5074945;28;20028;-80
2022/10/31 08:32:24;;;;;;;12.02;7.57;;;11.30;99.90;;;;;;5074881;28;20020;-82
2022/10/31 08:34:49;;;;;;;10.77;6.93;;;11.30;99.90;;;;;;5084745;28;20123;-60
2022/10/31 08:37:19;;;;;;;12.15;6.32;;;11.40;99.90;;;;;;5094689;28;20028;-59
2022/10/31 08:39:46;;;;;;;8.68;5.38;;;11.40;99.90;;;;;;5094948;28;20016;-59
2022/10/31 08:42:12;;;;;;;12.20;6.97;;;11.40;99.90;;;;;;5093513;28;20035;-78
2022/10/31 08:44:38;;;;;;;11.63;6.28;;;11.60;99.90;;;;;;5094569;28;20024;-79
2022/10/31 08:47:04;;;;;;;10.40;6.38;;;11.70;99.90;;;;;;5094739;28;20028;-78
2022/10/31 08:49:29;;;;;;;10.60;6.68;;;11.80;99.90;;;;;;5093244;28;20024;-79
2022/10/31 08:51:55;;;;;;;11.93;6.50;;;11.90;99.90;;;;;;5093194;28;20032;-79
2022/10/31 08:54:21;;;;;;;11.18;6.53;;;11.90;99.90;;;;;;5094004;28;20428;-79
2022/10/31 08:56:46;;;;;;;12.15;6.40;;;11.90;99.90;;;;;;5094159;28;20024;-78
2022/10/31 08:59:12;;;;;;;11.55;6.07;;;11.90;99.90;;;;;;5094019;28;20486;-78
2022/10/31 09:01:38;;;;;;;11.48;6.18;;;11.90;99.90;;;;;;5094496;28;20024;-81
2022/10/31 09:04:03;;;;;;;11.05;7.25;;;11.90;99.90;;;;;;5094079;28;20104;-81
2022/10/31 09:06:29;;;;;;;13.63;7.18;;;11.90;99.90;;;;;;5094386;28;20107;-79
2022/10/31 09:08:54;;;;;;;18.02;8.32;;;11.90;99.90;;;;;;5092976;28;20063;-79
2022/10/31 09:11:20;;;;;;;13.63;7.20;;;11.90;99.90;;;;;;5093529;28;20119;-81
2022/10/31 09:13:46;;;;;;;19.10;7.60;;;12.00;99.90;;;;;;5092860;28;20024;-80
2022/10/31 09:16:11;;;;;;;14.65;7.75;;;12.10;99.90;;;;;;5087099;28;20028;-80
2022/10/31 09:18:37;;;;;;;12.10;7.13;;;12.20;99.90;;;;;;5074259;28;20472;-80
2022/10/31 09:21:03;;;;;;;13.40;7.53;;;12.30;99.90;;;;;;5072668;28;20029;-80
2022/10/31 09:23:29;;;;;;;10.82;6.82;;;12.30;99.90;;;;;;5089764;28;20035;-81
2022/10/31 09:25:55;;;;;;;15.25;7.20;;;12.30;99.90;;;;;;5093844;28;20027;-81
2022/10/31 09:28:23;;;;;;;13.70;7.82;;;12.40;99.90;;;;;;5094316;28;20036;-81
2022/10/31 09:30:52;;;;;;;14.43;7.57;;;12.50;99.90;;;;;;5092445;28;20115;-81
2022/10/31 09:33:18;;;;;;;15.50;7.45;;;12.50;99.90;;;;;;5090083;28;20056;-80
2022/10/31 09:35:44;;;;;;;12.85;8.23;;;12.40;99.90;;;;;;5055610;28;20033;-82
2022/10/31 09:38:12;;;;;;;13.90;8.32;;;12.40;99.90;;;;;;5073573;28;20028;-80
2022/10/31 09:40:42;;;;;;;12.02;8.23;;;12.50;99.90;;;;;;5055383;28;20025;-81
2022/10/31 09:43:11;;;;;;;13.35;7.70;;;12.50;99.90;;;;;;5055695;28;20025;-80
2022/10/31 09:45:46;;;;;;;13.60;8.10;;;12.50;99.90;;;;;;5055355;28;20025;-81
2022/10/31 09:48:49;;;;;;;13.60;8.32;;;12.60;99.90;;;;;;5073718;28;20270;-80
2022/10/31 09:51:28;;;;;;;12.77;7.88;;;12.60;99.90;;;;;;5073074;28;20085;-80
2022/10/31 09:54:07;;;;;;;14.27;8.27;;;12.60;99.90;;;;;;5055739;28;20040;-82
2022/10/31 09:56:34;;;;;;;15.63;7.95;;;12.60;99.90;;;;;;5055643;28;20025;-80
2022/10/31 09:59:03;;;;;;;13.48;9.10;;;12.60;99.90;;;;;;5073725;28;20158;-80
2022/10/31 10:01:46;;;;;;;16.57;8.90;;;12.80;99.90;;;;;;5073553;28;20086;-80
2022/10/31 10:04:14;;;;;;;15.93;8.25;;;12.90;99.90;;;;;;5056025;28;20103;-80
2022/10/31 10:06:46;;;;;;;17.27;9.65;;;12.90;99.90;;;;;;5073757;28;20103;-81
2022/10/31 10:09:12;;;;;;;16.50;9.63;;;13.10;99.90;;;;;;5073261;28;20557;-80
2022/10/31 10:11:51;;;;;;;15.25;9.63;;;13.10;99.90;;;;;;5073038;28;20052;-80
2022/10/31 10:14:39;;;;;;;16.63;10.13;;;13.20;99.90;;;;;;5073381;28;20032;-82
2022/10/31 10:17:22;;;;;;;19.50;10.33;;;13.30;99.90;;;;;;5074904;28;20042;-81
2022/10/31 10:20:12;;;;;;;22.40;11.57;;;13.30;99.90;;;;;;5059213;28;20526;-80
2022/10/31 10:22:48;;;;;;;19.85;11.52;;;13.30;99.90;;;;;;5077312;28;20020;-80
2022/10/31 10:25:26;;;;;;;20.42;10.23;;;13.20;99.90;;;;;;5077106;28;20027;-80
2022/10/31 10:28:23;;;;;;;20.27;11.27;;;13.20;99.90;;;;;;5059100;28;20111;-81
2022/10/31 10:30:56;;;;;;;18.23;10.82;;;13.30;99.90;;;;;;5076929;28;20028;-80
2022/10/31 10:33:39;;;;;;;21.25;12.10;;;13.50;99.90;;;;;;5062584;28;20113;-80
2022/10/31 10:36:20;;;;;;;18.52;10.82;;;13.50;99.90;;;;;;5096018;28;20438;-80
2022/10/31 10:38:50;;;;;;;21.52;12.13;;;13.70;99.90;;;;;;5096229;28;20032;-81
2022/10/31 10:41:19;;;;;;;20.15;12.57;;;13.90;99.90;;;;;;5097218;28;20024;-82
2022/10/31 10:43:45;;;;;;;20.20;13.23;;;14.00;99.90;;;;;;5095973;28;20028;-80
2022/10/31 10:49:29;;;;;;;19.83;12.95;;;14.10;99.90;;;;;;5097359;28;20086;-81
2022/10/31 10:52:01;;;;;;;22.00;13.88;;;14.00;99.90;;;;;;5095729;28;20073;-80
2022/10/31 10:55:04;;;;;;;27.23;15.02;;;14.00;99.90;;;;;;5095669;28;20036;-81
2022/10/31 10:57:29;;;;;;;23.58;13.65;;;14.00;99.90;;;;;;5095465;28;20020;-80
2022/10/31 10:59:55;;;;;;;24.90;14.82;;;14.00;99.90;;;;;;5095966;28;20115;-80
2022/10/31 11:02:32;;;;;;;25.98;15.18;;;14.10;99.90;;;;;;5096207;28;20051;-80
2022/10/31 11:05:00;;;;;;;26.70;13.43;;;14.00;99.90;;;;;;5095373;28;20031;-80
2022/10/31 11:07:38;;;;;;;21.55;13.55;;;14.20;99.90;;;;;;5096596;28;20028;-81
2022/10/31 11:10:12;;;;;;;28.65;14.05;;;14.20;99.90;;;;;;5096630;28;20031;-80
2022/10/31 11:12:38;;;;;;;21.67;13.27;;;14.30;99.90;;;;;;5095671;28;20032;-81
2022/10/31 11:15:27;;;;;;;22.77;14.02;;;14.30;99.90;;;;;;5095082;28;20038;-81
2022/10/31 11:17:55;;;;;;;26.20;13.88;;;14.40;99.90;;;;;;5095344;28;20473;-81
2022/10/31 11:20:35;;;;;;;22.83;13.02;;;14.50;99.90;;;;;;5096043;28;20024;-81
2022/10/31 11:23:24;;;;;;;24.48;13.20;;;14.50;99.90;;;;;;5095925;28;20112;-81
2022/10/31 11:25:53;;;;;;;19.30;11.93;;;14.60;99.90;;;;;;5094075;28;20468;-81
2022/10/31 11:28:19;;;;;;;22.65;12.90;;;14.70;99.90;;;;;;5094552;28;20543;-82
2022/10/31 11:30:52;;;;;;;20.13;12.60;;;14.70;99.90;;;;;;5095746;28;20099;-83
2022/10/31 11:33:22;;;;;;;20.50;13.00;;;14.70;99.90;;;;;;5093159;28;20452;-83
2022/10/31 11:35:49;;;;;;;22.42;13.25;;;14.60;99.90;;;;;;5058834;28;20037;-83
2022/10/31 11:38:20;;;;;;;23.85;13.93;;;14.60;99.90;;;;;;5076145;28;20020;-82
2022/10/31 11:41:14;;;;;;;25.05;14.38;;;14.50;99.90;;;;;;5057866;28;20106;-80
2022/10/31 11:43:50;;;;;;;22.90;13.82;;;14.40;99.90;;;;;;5038730;28;20040;-81
2022/10/31 11:46:25;;;;;;;22.55;14.32;;;14.30;99.90;;;;;;5058069;28;20036;-80
2022/10/31 11:48:55;;;;;;;24.05;15.57;;;14.30;99.90;;;;;;5075565;28;20025;-79
2022/10/31 11:51:30;;;;;;;;;;;14.20;99.90;;;;;;5076234;28;20021;-82
2022/10/31 11:53:57;;;;;;;26.83;16.77;;;14.00;99.90;;;;;;5057649;28;19924;-83
2022/10/31 11:56:24;;;;;;;25.63;16.77;;;14.00;99.90;;;;;;5075647;28;20025;-81
2022/10/31 11:59:22;;;;;;;24.52;16.20;;;13.90;99.90;;;;;;5075159;28;20358;-83
2022/10/31 12:01:50;;;;;;;27.38;16.50;;;13.80;99.90;;;;;;5056858;28;20090;-84
2022/10/31 12:04:16;;;;;;;28.17;18.00;;;13.70;99.90;;;;;;5075728;28;20473;-85
2022/10/31 12:06:47;;;;;;;28.73;16.67;;;13.70;99.90;;;;;;5058008;28;20472;-59
2022/10/31 12:09:20;;;;;;;32.10;19.70;;;13.70;99.90;;;;;;5075104;28;20073;-80
2022/10/31 12:11:54;;;;;;;34.50;19.27;;;13.70;99.90;;;;;;5057262;28;20369;-81
2022/10/31 12:14:32;;;;;;;30.45;18.80;;;13.80;99.90;;;;;;5057087;28;20043;-81
2022/10/31 12:17:15;;;;;;;29.42;19.40;;;13.80;99.90;;;;;;5075235;28;20048;-80
2022/10/31 12:20:01;;;;;;;32.45;19.73;;;13.90;99.90;;;;;;5075280;28;20028;-81
2022/10/31 12:22:39;;;;;;;33.72;19.75;;;13.80;99.90;;;;;;5057118;28;20460;-81
2022/10/31 12:25:17;;;;;;;37.55;21.15;;;13.80;99.90;;;;;;5075122;28;20040;-81
2022/10/31 12:28:05;;;;;;;33.30;19.55;;;13.80;99.90;;;;;;5056951;28;20056;-79
2022/10/31 12:30:59;;;;;;;32.78;19.33;;;13.80;99.90;;;;;;5010973;28;20068;-81
2022/10/31 12:33:46;;;;;;;31.42;19.20;;;13.80;99.90;;;;;;5061228;28;20045;-81
2022/10/31 12:36:27;;;;;;;34.33;21.15;;;13.80;99.90;;;;;;5094007;28;20039;-80
2022/10/31 12:39:11;;;;;;;32.40;19.77;;;13.80;99.90;;;;;;5093177;28;20025;-79
2022/10/31 12:41:59;;;;;;;33.13;20.70;;;13.80;99.90;;;;;;5093426;28;20024;-79
2022/10/31 12:44:42;;;;;;;35.33;20.55;;;13.80;99.90;;;;;;5093635;28;20122;-80
2022/10/31 12:47:13;;;;;;;34.45;20.70;;;13.80;99.90;;;;;;5093433;28;20024;-79
2022/10/31 12:49:48;;;;;;;34.85;21.33;;;13.80;99.90;;;;;;5093185;28;20035;-79
2022/10/31 12:52:25;;;;;;;37.28;20.50;;;13.80;99.90;;;;;;5094721;28;20031;-79
2022/10/31 12:55:15;;;;;;;36.50;21.45;;;13.70;99.90;;;;;;5094099;28;20039;-78
2022/10/31 12:58:04;;;;;;;32.72;20.38;;;13.60;99.90;;;;;;5093196;28;20028;-79
2022/10/31 13:00:35;;;;;;;35.88;21.67;;;13.60;99.90;;;;;;5093112;28;20024;-78